createdAt,value
2018-07-08T00:02:05.214Z,92.70
2018-07-08T00:04:33.856Z,92.60
2018-07-08T00:07:02.454Z,92.50
2018-07-08T00:09:31.053Z,92.50
2018-07-08T00:11:59.888Z,92.70
2018-07-08T00:14:28.652Z,92.60
2018-07-08T00:16:57.417Z,93.00
2018-07-08T00:19:25.984Z,93.30
2018-07-08T00:21:54.952Z,93.70
2018-07-08T00:24:23.518Z,94.10
2018-07-08T00:26:52.329Z,94.30
2018-07-08T00:29:21.062Z,94.30
2018-07-08T00:31:49.900Z,94.40
2018-07-08T00:34:18.413Z,94.40
2018-07-08T00:36:47.087Z,94.40
2018-07-08T00:41:44.127Z,94.50
2018-07-08T00:44:12.870Z,94.90
2018-07-08T00:46:41.420Z,95.20
2018-07-08T00:49:10.153Z,95.40
2018-07-08T00:51:39.057Z,95.80
2018-07-08T00:54:07.624Z,96.00
2018-07-08T00:56:36.204Z,96.20
2018-07-08T00:59:04.828Z,96.00
2018-07-08T01:01:33.485Z,95.90
2018-07-08T01:04:02.168Z,95.80
2018-07-08T01:06:30.848Z,95.80
2018-07-08T01:08:59.408Z,95.80
2018-07-08T01:11:28.169Z,95.60
2018-07-08T01:13:56.929Z,95.50
2018-07-08T01:16:25.703Z,95.70
2018-07-08T01:18:54.311Z,96.30
2018-07-08T01:21:22.877Z,96.70
2018-07-08T01:23:51.368Z,96.70
2018-07-08T01:26:19.956Z,96.70
2018-07-08T01:28:48.669Z,97.10
2018-07-08T01:33:45.616Z,96.90
2018-07-08T01:36:14.303Z,97.30
2018-07-08T01:38:42.827Z,97.60
2018-07-08T01:41:11.671Z,97.70
2018-07-08T01:43:40.210Z,97.70
2018-07-08T01:46:08.976Z,97.80
2018-07-08T01:48:37.485Z,97.70
2018-07-08T01:51:06.052Z,97.70
2018-07-08T01:53:34.601Z,97.70
2018-07-08T01:56:03.275Z,98.10
2018-07-08T01:58:31.806Z,98.20
2018-07-08T02:01:00.670Z,98.50
2018-07-08T02:03:29.529Z,98.50
2018-07-08T02:05:58.031Z,98.50
2018-07-08T02:08:26.643Z,98.40
2018-07-08T02:10:55.433Z,98.40
2018-07-08T02:13:24.140Z,98.40
2018-07-08T02:15:52.644Z,98.40
2018-07-08T02:18:21.207Z,98.50
2018-07-08T02:20:49.808Z,98.40
2018-07-08T02:23:18.453Z,98.30
2018-07-08T02:25:47.106Z,98.30
2018-07-08T02:28:15.896Z,98.70
2018-07-08T02:30:44.447Z,99.00
2018-07-08T02:33:13.159Z,99.00
2018-07-08T02:35:41.697Z,99.00
2018-07-08T02:38:10.505Z,99.00
2018-07-08T02:40:39.180Z,99.10
2018-07-08T02:43:07.851Z,99.10
2018-07-08T02:45:36.905Z,99.20
2018-07-08T02:48:05.759Z,99.20
2018-07-08T02:50:34.282Z,99.20
2018-07-08T02:53:02.886Z,99.40
2018-07-08T02:55:31.409Z,99.50
2018-07-08T02:57:59.918Z,99.50
2018-07-08T03:00:28.624Z,99.30
2018-07-08T03:02:57.223Z,99.30
2018-07-08T03:05:25.996Z,99.40
2018-07-08T03:07:54.659Z,99.70
2018-07-08T03:10:23.170Z,99.50
2018-07-08T03:12:51.657Z,99.60
2018-07-08T03:15:20.223Z,99.70
2018-07-08T03:17:48.741Z,99.70
2018-07-08T03:20:17.231Z,99.80
2018-07-08T03:22:45.712Z,99.60
2018-07-08T03:25:14.234Z,99.70
2018-07-08T03:27:43.295Z,99.80
2018-07-08T03:30:11.796Z,99.90
2018-07-08T03:32:40.354Z,99.90
2018-07-08T03:35:08.975Z,99.90
2018-07-08T03:37:37.537Z,99.90
2018-07-08T03:40:06.074Z,99.90
2018-07-08T03:42:34.599Z,99.90
2018-07-08T03:45:03.215Z,99.70
2018-07-08T03:47:31.918Z,99.60
2018-07-08T03:50:00.595Z,99.50
2018-07-08T03:52:29.409Z,99.70
2018-07-08T03:54:57.999Z,99.80
2018-07-08T03:57:26.643Z,99.90
2018-07-08T03:59:55.346Z,99.80
2018-07-08T04:02:23.879Z,99.80
2018-07-08T04:04:52.381Z,99.70
2018-07-08T04:07:20.974Z,99.60
2018-07-08T04:09:49.660Z,99.60
2018-07-08T04:12:18.400Z,99.60
2018-07-08T04:14:46.912Z,99.30
2018-07-08T04:17:15.540Z,99.20
2018-07-08T04:19:44.136Z,99.00
2018-07-08T04:22:12.707Z,99.00
2018-07-08T04:24:41.276Z,99.30
2018-07-08T04:27:10.274Z,99.10
2018-07-08T04:29:38.838Z,99.20
2018-07-08T04:32:07.303Z,99.10
2018-07-08T04:37:04.085Z,98.80
2018-07-08T04:39:32.559Z,98.70
2018-07-08T04:44:29.599Z,98.40
2018-07-08T04:46:58.084Z,98.10
2018-07-08T04:49:26.663Z,97.50
2018-07-08T04:51:55.333Z,97.10
2018-07-08T04:54:24.024Z,96.80
2018-07-08T04:56:52.759Z,96.90
2018-07-08T04:59:21.322Z,96.60
2018-07-08T05:01:49.905Z,96.70
2018-07-08T05:04:18.390Z,96.70
2018-07-08T05:06:47.041Z,96.70
2018-07-08T05:09:15.518Z,96.80
2018-07-08T05:11:44.024Z,96.30
2018-07-08T05:14:12.651Z,95.90
2018-07-08T05:16:41.191Z,95.20
2018-07-08T05:19:09.812Z,95.40
2018-07-08T05:21:38.298Z,95.60
2018-07-08T05:24:06.807Z,96.00
2018-07-08T05:26:35.347Z,96.40
2018-07-08T05:29:03.796Z,95.90
2018-07-08T05:31:32.315Z,96.00
2018-07-08T05:34:01.130Z,95.50
2018-07-08T05:36:30.100Z,95.20
2018-07-08T05:38:58.924Z,94.60
2018-07-08T05:41:27.911Z,94.50
2018-07-08T05:43:56.838Z,94.80
2018-07-08T05:46:25.631Z,95.00
2018-07-08T05:48:54.165Z,95.40
2018-07-08T05:51:23.061Z,95.60
2018-07-08T05:53:51.707Z,95.90
2018-07-08T05:56:20.398Z,95.60
2018-07-08T05:58:49.068Z,95.80
2018-07-08T06:01:17.730Z,95.80
2018-07-08T06:03:46.327Z,95.90
2018-07-08T06:06:14.925Z,95.50
2018-07-08T06:08:43.445Z,95.30
2018-07-08T06:11:12.200Z,95.50
2018-07-08T06:13:41.033Z,95.50
2018-07-08T06:16:09.597Z,95.70
2018-07-08T06:18:38.136Z,95.10
2018-07-08T06:21:07.079Z,95.70
2018-07-08T06:23:35.800Z,95.60
2018-07-08T06:26:04.407Z,95.00
2018-07-08T06:28:32.915Z,95.10
2018-07-08T06:31:01.581Z,95.10
2018-07-08T06:33:30.262Z,93.70
2018-07-08T06:35:58.821Z,93.40
2018-07-08T06:38:27.617Z,93.30
2018-07-08T06:40:56.288Z,92.80
2018-07-08T06:43:25.173Z,92.70
2018-07-08T06:45:53.716Z,92.40
2018-07-08T06:48:22.240Z,91.70
2018-07-08T06:53:19.148Z,91.50
2018-07-08T06:55:47.815Z,91.60
2018-07-08T06:58:16.636Z,91.20
2018-07-08T07:00:45.148Z,90.80
2018-07-08T07:03:13.950Z,90.20
2018-07-08T07:08:10.670Z,89.80
2018-07-08T07:10:39.284Z,89.60
2018-07-08T07:13:08.159Z,89.60
2018-07-08T07:15:36.768Z,89.40
2018-07-08T07:20:33.907Z,88.60
2018-07-08T07:23:02.418Z,88.70
2018-07-08T07:25:30.907Z,85.90
2018-07-08T07:27:59.664Z,87.30
2018-07-08T07:30:28.272Z,83.20
2018-07-08T07:32:56.977Z,83.70
2018-07-08T07:35:25.445Z,82.10
2018-07-08T07:37:54.008Z,82.10
2018-07-08T07:45:19.428Z,81.90
2018-07-08T07:47:47.926Z,81.00
2018-07-08T07:50:16.924Z,80.90
2018-07-08T07:52:45.660Z,81.10
2018-07-08T07:55:14.211Z,77.30
2018-07-08T07:57:43.011Z,78.90
2018-07-08T08:00:11.567Z,77.20
2018-07-08T08:02:40.219Z,78.30
2018-07-08T08:05:08.987Z,76.00
2018-07-08T08:07:37.925Z,76.80
2018-07-08T08:10:06.868Z,75.70
2018-07-08T08:12:35.696Z,74.40
2018-07-08T08:15:04.912Z,73.80
2018-07-08T08:17:33.710Z,74.30
2018-07-08T08:20:03.451Z,75.50
2018-07-08T08:22:32.008Z,70.50
2018-07-08T08:25:00.626Z,71.60
2018-07-08T08:27:29.508Z,72.80
2018-07-08T08:29:58.665Z,70.70
2018-07-08T08:32:27.323Z,71.90
2018-07-08T08:34:57.997Z,70.10
2018-07-08T08:37:28.088Z,69.20
2018-07-08T08:42:25.341Z,68.60
2018-07-08T08:44:54.802Z,70.40
2018-07-08T08:47:23.873Z,70.10
2018-07-08T08:52:21.686Z,69.40
2018-07-08T08:54:50.548Z,68.40
2018-07-08T08:57:19.096Z,67.70
2018-07-08T08:59:47.704Z,68.30
2018-07-08T09:02:16.301Z,67.50
2018-07-08T09:04:45.303Z,69.50
2018-07-08T09:07:15.740Z,68.70
2018-07-08T09:09:44.410Z,68.60
2018-07-08T09:12:13.597Z,68.70
2018-07-08T09:14:42.308Z,66.90
2018-07-08T09:17:11.221Z,67.70
2018-07-08T09:19:40.097Z,66.30
2018-07-08T09:22:09.342Z,66.60
2018-07-08T09:24:38.017Z,66.50
2018-07-08T09:27:07.125Z,66.70
2018-07-08T09:32:04.258Z,66.90
2018-07-08T09:34:33.161Z,66.70
2018-07-08T09:37:01.716Z,65.20
2018-07-08T09:39:30.566Z,64.10
2018-07-08T09:44:27.492Z,64.00
2018-07-08T09:46:56.195Z,63.20
2018-07-08T09:49:25.088Z,61.80
2018-07-08T09:51:53.719Z,61.80
2018-07-08T09:54:22.272Z,61.00
2018-07-08T09:56:51.232Z,60.80
2018-07-08T09:59:19.923Z,59.90
2018-07-08T10:01:49.679Z,58.60
2018-07-08T10:04:19.676Z,60.10
2018-07-08T10:06:49.411Z,59.30
2018-07-08T10:09:19.307Z,58.50
2018-07-08T10:11:48.050Z,58.50
2018-07-08T10:14:18.928Z,58.40
2018-07-08T10:16:47.698Z,58.30
2018-07-08T10:19:17.389Z,59.00
2018-07-08T10:21:46.260Z,57.20
2018-07-08T10:24:15.222Z,57.40
2018-07-08T10:26:43.887Z,55.30
2018-07-08T10:29:16.335Z,54.80
2018-07-08T10:31:51.026Z,53.10
2018-07-08T10:34:19.764Z,53.50
2018-07-08T10:36:48.392Z,51.10
2018-07-08T10:39:17.553Z,50.80
2018-07-08T10:41:46.201Z,50.50
2018-07-08T10:44:14.797Z,50.00
2018-07-08T10:46:43.896Z,50.40
2018-07-08T10:49:12.640Z,49.60
2018-07-08T10:51:41.196Z,48.90
2018-07-08T10:54:10.275Z,46.90
2018-07-08T10:59:07.224Z,45.70
2018-07-08T11:01:36.161Z,44.70
2018-07-08T11:04:05.032Z,42.70
2018-07-08T11:06:33.647Z,40.80
2018-07-08T11:09:02.300Z,40.20
2018-07-08T11:11:31.202Z,41.40
2018-07-08T11:13:59.763Z,41.80
2018-07-08T11:16:28.885Z,42.30
2018-07-08T11:18:57.501Z,40.10
2018-07-08T11:21:26.096Z,40.40
2018-07-08T11:23:54.944Z,40.70
2018-07-08T11:26:23.529Z,39.20
2018-07-08T11:28:52.357Z,37.90
2018-07-08T11:31:21.074Z,37.70
2018-07-08T11:33:49.692Z,38.40
2018-07-08T11:36:18.310Z,35.70
2018-07-08T11:38:47.016Z,35.60
2018-07-08T11:41:15.968Z,34.80
2018-07-08T11:43:45.252Z,37.10
2018-07-08T11:46:13.825Z,36.70
2018-07-08T11:48:42.698Z,35.10
2018-07-08T11:51:11.409Z,33.80
2018-07-08T11:53:40.093Z,32.90
2018-07-08T11:56:08.893Z,32.20
2018-07-08T11:58:37.866Z,34.00
2018-07-08T12:01:06.497Z,33.60
2018-07-08T12:03:35.283Z,33.90
2018-07-08T12:06:04.020Z,34.20
2018-07-08T12:08:33.229Z,33.20
2018-07-08T12:11:01.797Z,30.60
2018-07-08T12:13:30.375Z,32.30
2018-07-08T12:15:59.076Z,31.00
2018-07-08T12:18:27.662Z,33.90
2018-07-08T12:20:56.242Z,31.70
2018-07-08T12:23:24.817Z,31.70
2018-07-08T12:25:53.810Z,31.10
2018-07-08T12:28:22.530Z,30.70
2018-07-08T12:30:51.214Z,31.90
2018-07-08T12:33:19.721Z,33.30
2018-07-08T12:35:48.617Z,32.60
2018-07-08T12:38:17.640Z,30.00
2018-07-08T12:40:46.518Z,29.80
2018-07-08T12:43:15.300Z,29.40
2018-07-08T12:45:44.108Z,30.00
2018-07-08T12:48:12.713Z,30.20
2018-07-08T12:50:41.400Z,29.10
2018-07-08T12:53:10.033Z,29.20
2018-07-08T12:55:38.563Z,28.90
2018-07-08T12:58:07.351Z,28.90
2018-07-08T13:00:35.951Z,29.70
2018-07-08T13:03:05.146Z,29.00
2018-07-08T13:05:34.077Z,28.90
2018-07-08T13:08:02.847Z,28.30
2018-07-08T13:10:31.604Z,29.60
2018-07-08T13:13:00.246Z,28.40
2018-07-08T13:15:29.337Z,28.40
2018-07-08T13:17:58.003Z,29.70
2018-07-08T13:20:26.842Z,28.80
2018-07-08T13:22:55.609Z,28.90
2018-07-08T13:27:53.482Z,28.00
2018-07-08T13:30:22.419Z,28.40
2018-07-08T13:32:51.180Z,28.90
2018-07-08T13:35:19.764Z,27.80
2018-07-08T13:37:48.649Z,27.30
2018-07-08T13:40:17.583Z,27.50
2018-07-08T13:42:46.492Z,27.30
2018-07-08T13:45:15.352Z,28.10
2018-07-08T13:47:43.987Z,27.40
2018-07-08T13:50:12.566Z,28.20
2018-07-08T13:52:41.360Z,27.50
2018-07-08T13:55:09.894Z,26.40
2018-07-08T13:57:38.424Z,27.30
2018-07-08T14:00:07.500Z,27.40
2018-07-08T14:02:36.183Z,26.30
2018-07-08T14:05:04.979Z,26.70
2018-07-08T14:07:33.549Z,26.60
2018-07-08T14:10:02.359Z,26.60
2018-07-08T14:12:30.920Z,26.70
2018-07-08T14:14:59.522Z,26.70
2018-07-08T14:17:28.077Z,26.40
2018-07-08T14:19:56.702Z,25.80
2018-07-08T14:22:25.485Z,25.90
2018-07-08T14:24:54.206Z,25.50
2018-07-08T14:29:51.010Z,24.20
2018-07-08T14:32:19.605Z,25.40
2018-07-08T14:34:48.153Z,24.90
2018-07-08T14:37:16.784Z,25.30
2018-07-08T14:39:45.592Z,24.40
2018-07-08T14:42:14.522Z,24.30
2018-07-08T14:44:43.305Z,25.90
2018-07-08T14:49:40.260Z,25.10
2018-07-08T14:52:09.251Z,24.80
2018-07-08T14:54:38.020Z,24.70
2018-07-08T14:59:35.572Z,25.10
2018-07-08T15:02:05.112Z,25.10
2018-07-08T15:04:33.858Z,23.60
2018-07-08T15:09:31.119Z,22.90
2018-07-08T15:11:59.906Z,23.70
2018-07-08T15:14:28.810Z,23.90
2018-07-08T15:16:57.809Z,24.50
2018-07-08T15:19:26.367Z,23.70
2018-07-08T15:21:55.309Z,22.90
2018-07-08T15:24:24.080Z,23.70
2018-07-08T15:26:52.759Z,23.30
2018-07-08T15:31:49.975Z,24.30
2018-07-08T15:34:18.579Z,24.90
2018-07-08T15:36:47.598Z,23.50
2018-07-08T15:39:16.193Z,22.20
2018-07-08T15:41:45.048Z,23.60
2018-07-08T15:44:14.248Z,23.30
2018-07-08T15:46:42.812Z,22.80
2018-07-08T15:49:11.459Z,23.70
2018-07-08T15:54:09.128Z,25.20
2018-07-08T15:56:37.949Z,24.70
2018-07-08T15:59:07.222Z,24.90
2018-07-08T16:04:04.656Z,24.10
2018-07-08T16:06:33.855Z,23.00
2018-07-08T16:09:02.751Z,24.20
2018-07-08T16:11:31.374Z,26.50
2018-07-08T16:16:29.229Z,26.10
2018-07-08T16:18:58.141Z,27.00
2018-07-08T16:23:55.354Z,28.60
2018-07-08T16:26:26.092Z,29.60
2018-07-08T16:28:55.072Z,28.90
2018-07-08T16:31:23.682Z,28.60
2018-07-08T16:33:55.882Z,28.60
2018-07-08T16:36:24.764Z,30.00
2018-07-08T16:38:53.305Z,29.60
2018-07-08T16:41:22.135Z,30.60
2018-07-08T16:43:50.919Z,29.40
2018-07-08T16:46:20.360Z,29.90
2018-07-08T16:48:49.223Z,29.30
2018-07-08T16:53:45.911Z,29.10
2018-07-08T16:56:14.483Z,29.80
2018-07-08T16:58:43.469Z,30.00
2018-07-08T17:01:12.287Z,30.70
2018-07-08T17:03:41.012Z,31.60
2018-07-08T17:06:09.711Z,32.10
2018-07-08T17:08:38.535Z,33.20
2018-07-08T17:11:07.630Z,31.90
2018-07-08T17:13:37.091Z,32.30
2018-07-08T17:16:06.117Z,33.50
2018-07-08T17:18:34.959Z,33.00
2018-07-08T17:21:03.632Z,33.50
2018-07-08T17:23:32.518Z,33.70
2018-07-08T17:26:01.000Z,34.60
2018-07-08T17:28:29.779Z,34.70
2018-07-08T17:30:58.361Z,35.10
2018-07-08T17:33:27.060Z,35.10
2018-07-08T17:35:55.784Z,35.40
2018-07-08T17:38:24.501Z,35.10
2018-07-08T17:40:53.954Z,35.50
2018-07-08T17:43:22.532Z,34.70
2018-07-08T17:45:51.381Z,34.70
2018-07-08T17:48:20.359Z,34.90
2018-07-08T17:50:49.185Z,35.90
2018-07-08T17:53:18.113Z,36.40
2018-07-08T17:55:47.122Z,36.40
2018-07-08T17:58:15.831Z,36.80
2018-07-08T18:00:44.822Z,35.70
2018-07-08T18:03:13.930Z,36.10
2018-07-08T18:05:42.737Z,36.50
2018-07-08T18:08:11.515Z,36.50
2018-07-08T18:10:40.467Z,37.20
2018-07-08T18:13:09.558Z,37.10
2018-07-08T18:15:39.305Z,36.80
2018-07-08T18:18:08.504Z,37.40
2018-07-08T18:20:37.475Z,38.00
2018-07-08T18:25:34.872Z,38.80
2018-07-08T18:28:03.866Z,38.70
2018-07-08T18:30:33.861Z,38.90
2018-07-08T18:33:03.182Z,39.30
2018-07-08T18:35:32.096Z,39.30
2018-07-08T18:38:01.152Z,40.20
2018-07-08T18:40:30.084Z,41.00
2018-07-08T18:42:58.838Z,41.90
2018-07-08T18:45:27.472Z,42.50
2018-07-08T18:47:56.427Z,43.40
2018-07-08T18:50:25.363Z,43.10
2018-07-08T18:52:58.902Z,43.70
2018-07-08T18:55:27.789Z,44.80
2018-07-08T18:57:56.594Z,46.00
2018-07-08T19:00:25.845Z,46.00
2018-07-08T19:02:54.570Z,46.80
2018-07-08T19:05:23.403Z,47.50
2018-07-08T19:07:52.875Z,48.30
2018-07-08T19:10:21.834Z,49.10
2018-07-08T19:15:18.690Z,50.60
2018-07-08T19:17:47.440Z,51.50
2018-07-08T19:20:16.038Z,52.10
2018-07-08T19:22:44.934Z,53.40
2018-07-08T19:25:14.072Z,53.70
2018-07-08T19:27:43.070Z,55.50
2018-07-08T19:30:12.062Z,56.40
2018-07-08T19:32:41.249Z,58.00
2018-07-08T19:35:10.015Z,58.00
2018-07-08T19:37:38.699Z,57.10
2018-07-08T19:40:07.508Z,58.70
2018-07-08T19:42:36.152Z,59.30
2018-07-08T19:45:04.897Z,59.50
2018-07-08T19:47:33.852Z,59.60
2018-07-08T19:50:03.019Z,59.30
2018-07-08T19:52:32.102Z,60.70
2018-07-08T19:55:01.193Z,62.50
2018-07-08T19:57:30.659Z,63.20
2018-07-08T19:59:59.600Z,64.40
2018-07-08T20:02:28.834Z,64.90
2018-07-08T20:04:58.162Z,66.30
2018-07-08T20:07:27.066Z,66.80
2018-07-08T20:09:55.516Z,68.60
2018-07-08T20:12:24.172Z,69.70
2018-07-08T20:14:53.029Z,70.90
2018-07-08T20:17:22.407Z,71.60
2018-07-08T20:19:51.558Z,72.00
2018-07-08T20:22:20.113Z,72.60
2018-07-08T20:24:48.921Z,72.80
2018-07-08T20:27:18.091Z,73.20
2018-07-08T20:29:46.770Z,73.80
2018-07-08T20:32:15.545Z,73.80
2018-07-08T20:34:44.391Z,74.50
2018-07-08T20:37:13.250Z,75.30
2018-07-08T20:39:42.200Z,75.50
2018-07-08T20:42:10.805Z,75.70
2018-07-08T20:44:39.536Z,76.50
2018-07-08T20:47:08.147Z,76.70
2018-07-08T20:49:37.132Z,77.00
2018-07-08T20:52:05.904Z,77.90
2018-07-08T20:54:34.628Z,78.10
2018-07-08T20:57:03.544Z,77.70
2018-07-08T20:59:32.115Z,79.00
2018-07-08T21:02:01.087Z,79.40
2018-07-08T21:04:29.870Z,80.30
2018-07-08T21:06:58.619Z,81.30
2018-07-08T21:09:27.612Z,81.30
2018-07-08T21:11:56.367Z,81.30
2018-07-08T21:14:25.183Z,80.90
2018-07-08T21:16:53.879Z,81.20
2018-07-08T21:19:22.489Z,81.70
2018-07-08T21:21:51.391Z,83.00
2018-07-08T21:24:20.318Z,83.30
2018-07-08T21:26:49.028Z,84.00
2018-07-08T21:29:17.779Z,83.80
2018-07-08T21:31:46.425Z,83.90
2018-07-08T21:34:15.051Z,84.30
2018-07-08T21:36:43.541Z,84.90
2018-07-08T21:39:12.411Z,85.20
2018-07-08T21:41:41.892Z,85.20
2018-07-08T21:44:10.724Z,86.00
2018-07-08T21:46:39.628Z,86.20
2018-07-08T21:49:08.187Z,86.50
2018-07-08T21:51:36.675Z,86.70
2018-07-08T21:54:05.272Z,86.70
2018-07-08T21:56:34.064Z,86.70
2018-07-08T21:59:02.746Z,87.50
2018-07-08T22:01:37.112Z,87.90
2018-07-08T22:06:34.564Z,88.20
2018-07-08T22:09:03.103Z,89.60
2018-07-08T22:11:34.686Z,90.30
2018-07-08T22:14:03.493Z,90.40
2018-07-08T22:16:32.120Z,90.20
2018-07-08T22:19:00.694Z,90.50
2018-07-08T22:21:29.439Z,90.80
2018-07-08T22:23:58.076Z,90.70
2018-07-08T22:26:27.180Z,90.90
2018-07-08T22:28:55.952Z,91.00
2018-07-08T22:31:25.354Z,91.30
2018-07-08T22:33:54.438Z,91.80
2018-07-08T22:36:26.123Z,91.90
2018-07-08T22:38:54.758Z,91.90
2018-07-08T22:41:23.315Z,91.80
2018-07-08T22:43:51.805Z,91.70
2018-07-08T22:46:20.328Z,92.40
2018-07-08T22:48:49.023Z,92.30
2018-07-08T22:51:17.706Z,92.10
2018-07-08T22:53:46.207Z,91.90
2018-07-08T22:56:15.322Z,91.40
2018-07-08T22:58:44.276Z,91.90
2018-07-08T23:01:24.021Z,92.30
2018-07-08T23:03:59.210Z,92.60
2018-07-08T23:06:27.771Z,92.80
2018-07-08T23:08:56.705Z,93.00
2018-07-08T23:11:26.290Z,93.40
2018-07-08T23:13:55.825Z,93.30
2018-07-08T23:16:25.351Z,93.50
2018-07-08T23:18:53.856Z,93.30
2018-07-08T23:21:22.575Z,93.50
2018-07-08T23:23:51.092Z,93.90
2018-07-08T23:26:19.691Z,94.10
2018-07-08T23:28:48.277Z,94.00
2018-07-08T23:31:16.847Z,93.70
2018-07-08T23:33:45.560Z,93.70
2018-07-08T23:36:14.222Z,93.50
2018-07-08T23:38:43.036Z,93.50
2018-07-08T23:41:12.145Z,93.70
2018-07-08T23:43:40.636Z,93.70
2018-07-08T23:46:09.146Z,93.90
2018-07-08T23:48:37.884Z,94.00
2018-07-08T23:51:06.411Z,93.90
2018-07-08T23:53:35.036Z,93.90
2018-07-08T23:56:03.544Z,94.40
2018-07-08T23:58:32.054Z,94.90
